Time;durP1;ratioP1;P1;durP2;ratioP2;P2;SDS_P1;SDS_P2;PMS_P1;PMS_P2;Temp;Humidity;BMP_temperature;BMP_pressure;BME280_temperature;BME280_humidity;BME280_pressure;Samples;Min_cycle;Max_cycle;Signal;HPM_P1;HPM_P2
2022/03/22 00:01:43;;;;;;;1999.90;999.90;;;;;;;5.31;44.88;103038.81;15414349;28;20154;-61
2022/03/22 00:09:15;;;;;;;1999.90;999.90;;;;;;;5.11;45.00;103047.50;15345649;28;20065;-59
2022/03/22 00:16:49;;;;;;;1999.90;999.90;;;;;;;4.91;45.73;103048.69;15353695;28;20549;-61
2022/03/22 00:24:21;;;;;;;1999.90;999.90;;;;;;;4.80;45.63;103049.50;15319291;29;20589;-61
2022/03/22 00:31:56;;;;;;;1999.90;999.90;;;;;;;4.69;46.14;103049.44;15384236;28;20051;-61
2022/03/22 00:39:31;;;;;;;1999.90;999.90;;;;;;;4.53;46.64;103040.78;15343462;28;20077;-61
2022/03/22 00:47:06;;;;;;;1999.90;999.90;;;;;;;4.40;46.69;103045.66;15354107;29;20523;-61
2022/03/22 00:54:40;;;;;;;1999.90;999.90;;;;;;;4.29;46.71;103050.06;15367073;29;20039;-60
2022/03/22 01:02:14;;;;;;;1999.90;999.90;;;;;;;4.18;47.36;103043.41;15343136;29;20046;-60
2022/03/22 01:09:46;;;;;;;1999.90;999.90;;;;;;;4.01;47.51;103037.69;15378612;28;20060;-61
2022/03/22 01:17:22;;;;;;;1999.90;999.90;;;;;;;3.90;48.43;103032.09;15352293;28;20062;-61
2022/03/22 01:24:55;;;;;;;1999.90;999.90;;;;;;;3.80;48.49;103034.56;15351566;28;20094;-61
2022/03/22 01:32:28;;;;;;;1999.90;999.90;;;;;;;3.64;47.74;103019.44;15405437;28;20591;-61
2022/03/22 01:40:01;;;;;;;1999.90;999.90;;;;;;;3.51;48.51;103006.66;15369738;23;20192;-60
2022/03/22 01:47:35;;;;;;;1999.90;999.90;;;;;;;3.52;48.33;102996.44;15405000;28;20039;-59
2022/03/22 01:55:09;;;;;;;1999.90;999.90;;;;;;;3.40;49.31;102997.22;15420060;28;20054;-59
2022/03/22 02:10:34;;;;;;;1999.90;999.90;;;;;;;3.21;50.00;102983.63;15394868;28;20125;-59
2022/03/22 02:18:08;;;;;;;1999.90;999.90;;;;;;;3.17;50.68;102983.25;15433154;28;20469;-59
2022/03/22 02:25:49;;;;;;;1999.90;999.90;;;;;;;3.03;51.14;102990.00;15422460;28;20053;-59
2022/03/22 02:33:21;;;;;;;1999.90;999.90;;;;;;;3.02;50.47;102982.75;15421573;28;20086;-58
2022/03/22 02:40:55;;;;;;;1999.90;999.90;;;;;;;2.92;50.58;102972.28;15403618;28;20046;-61
2022/03/22 02:48:27;;;;;;;1999.90;999.90;;;;;;;2.99;49.70;102983.22;15422679;28;20074;-61
2022/03/22 02:56:02;;;;;;;1999.90;999.90;;;;;;;2.95;50.22;102985.59;15420392;28;20066;-60
2022/03/22 03:03:35;;;;;;;1999.90;999.90;;;;;;;2.88;50.33;102990.34;15420320;28;20045;-58
2022/03/22 03:11:08;;;;;;;1999.90;999.90;;;;;;;2.75;51.02;102984.94;15420012;28;20077;-61
2022/03/22 03:18:40;;;;;;;1999.90;999.90;;;;;;;2.79;50.96;102995.28;15419449;28;20225;-60
2022/03/22 03:26:14;;;;;;;1999.90;999.90;;;;;;;2.75;50.67;102996.81;15392841;28;20051;-59
2022/03/22 03:33:46;;;;;;;1999.90;999.90;;;;;;;2.73;50.41;102990.69;15392572;28;20130;-59
2022/03/22 03:49:14;;;;;;;1999.90;999.90;;;;;;;2.67;50.64;102997.09;15402998;28;20073;-60
2022/03/22 03:56:48;;;;;;;1999.90;999.90;;;;;;;2.66;50.85;103000.06;15418175;28;20053;-59
2022/03/22 04:04:21;;;;;;;1999.90;999.90;;;;;;;2.47;51.08;102999.16;15400017;28;20147;-60
2022/03/22 04:11:54;;;;;;;1999.90;999.90;;;;;;;2.43;50.74;103012.56;15414325;28;20047;-58
2022/03/22 04:19:28;;;;;;;1999.90;999.90;;;;;;;2.44;51.47;103017.00;15418931;28;20445;-61
2022/03/22 04:34:49;;;;;;;1999.90;999.90;;;;;;;2.30;51.55;103018.16;15419809;28;20121;-60
2022/03/22 04:42:23;;;;;;;1999.90;999.90;;;;;;;2.23;52.17;103020.94;15415896;28;20035;-59
2022/03/22 04:49:55;;;;;;;1999.90;999.90;;;;;;;2.16;51.72;103019.28;15410897;28;20070;-61
2022/03/22 04:57:29;;;;;;;1999.90;999.90;;;;;;;2.03;52.40;103025.72;15431685;28;20035;-61
2022/03/22 05:05:01;;;;;;;1999.90;999.90;;;;;;;2.03;52.12;103023.81;15431335;28;20162;-60
2022/03/22 05:12:37;;;;;;;1999.90;999.90;;;;;;;2.01;52.82;103022.34;15413808;28;20047;-60
2022/03/22 05:20:12;;;;;;;1999.90;999.90;;;;;;;2.02;52.42;103032.28;15430078;28;20050;-60
2022/03/22 05:27:45;;;;;;;1999.90;999.90;;;;;;;2.19;52.40;103033.47;15433459;28;20047;-60
2022/03/22 05:35:18;;;;;;;1999.90;999.90;;;;;;;2.78;51.35;103039.63;15411737;28;20523;-60
2022/03/22 05:42:51;;;;;;;1999.90;999.90;;;;;;;3.62;49.68;103040.94;15427947;28;20413;-60
2022/03/22 05:50:24;;;;;;;1999.90;999.90;;;;;;;3.76;48.82;103040.56;15396196;28;20074;-60
2022/03/22 05:57:59;;;;;;;1999.90;999.90;;;;;;;3.14;49.96;103048.03;15404727;28;20035;-61
2022/03/22 06:05:43;;;;;;;1999.90;999.90;;;;;;;3.08;50.32;103059.97;15387039;28;20047;-61
2022/03/22 06:13:17;;;;;;;1999.90;999.90;;;;;;;3.44;49.93;103063.88;15424096;28;20130;-61
2022/03/22 06:20:49;;;;;;;1999.90;999.90;;;;;;;3.73;49.57;103068.63;15427068;28;20484;-62
2022/03/22 06:28:22;;;;;;;1999.90;999.90;;;;;;;4.19;48.72;103069.13;15414748;28;20523;-61
2022/03/22 06:36:01;;;;;;;;;;;;;;;4.78;46.94;103078.47;15429323;28;20031;-61
2022/03/22 06:43:37;;;;;;;1999.90;999.90;;;;;;;5.97;44.39;103079.13;15440656;28;19922;-60
2022/03/22 06:51:09;;;;;;;1999.90;999.90;;;;;;;7.24;41.94;103076.75;15441498;28;20047;-60
2022/03/22 06:58:42;;;;;;;1999.90;999.90;;;;;;;8.47;39.37;103086.78;15425301;28;20086;-58
2022/03/22 07:06:14;;;;;;;1999.90;999.90;;;;;;;9.02;38.71;103082.88;15415228;28;20306;-60
2022/03/22 07:13:49;;;;;;;1999.90;999.90;;;;;;;9.46;37.13;103089.91;15403917;28;20069;-61
2022/03/22 07:21:22;;;;;;;1999.90;999.90;;;;;;;9.99;35.54;103085.19;15418133;28;20047;-61
2022/03/22 07:28:55;;;;;;;1999.90;999.90;;;;;;;10.72;33.98;103098.28;15407038;28;20542;-59
2022/03/22 07:36:33;;;;;;;1999.90;999.90;;;;;;;11.02;34.92;103105.88;15416992;28;20492;-59
2022/03/22 07:44:06;;;;;;;1999.90;999.90;;;;;;;11.27;33.59;103108.69;15346870;29;20070;-61
2022/03/22 07:59:30;;;;;;;1999.90;999.90;;;;;;;13.64;29.50;103104.13;15337969;29;20524;-63
2022/03/22 08:07:02;;;;;;;1999.90;999.90;;;;;;;14.34;29.76;103112.88;15354564;29;20051;-61
2022/03/22 08:14:37;;;;;;;1999.90;999.90;;;;;;;15.20;28.07;103107.13;15346845;28;20043;-62
2022/03/22 08:22:10;;;;;;;1999.90;999.90;;;;;;;15.41;27.27;103108.44;15360418;28;20054;-61
2022/03/22 08:29:43;;;;;;;1999.90;999.90;;;;;;;14.57;26.97;103110.34;15378822;28;20075;-62
2022/03/22 08:37:16;;;;;;;1999.90;999.90;;;;;;;15.76;25.63;103107.00;15360242;28;20098;-63
2022/03/22 08:44:50;;;;;;;50.88;46.35;;;;;;;17.25;24.45;103102.56;15362180;29;20066;-61
2022/03/22 08:52:22;;;;;;;;;;;;;;;17.68;23.90;103100.00;15357339;28;20455;-62
2022/03/22 08:59:56;;;;;;;101.45;94.65;;;;;;;18.23;24.83;103091.09;15351766;29;19953;-64
2022/03/22 09:07:29;;;;;;;127.55;118.55;;;;;;;17.54;23.39;103093.63;15364984;28;20043;-60
2022/03/22 09:15:02;;;;;;;144.38;135.57;;;;;;;18.11;22.72;103090.91;15346948;29;20059;-61
2022/03/22 09:22:35;;;;;;;;;;;;;;;19.31;21.56;103083.72;15365509;28;20044;-62
2022/03/22 09:30:10;;;;;;;1999.90;999.90;;;;;;;18.70;21.10;103080.91;15348453;28;19926;-61
2022/03/22 09:37:48;;;;;;;1999.90;999.90;;;;;;;19.30;19.98;103071.56;15375191;28;20055;-62
2022/03/22 09:45:25;;;;;;;1999.90;999.90;;;;;;;20.82;19.27;103074.66;15375081;29;20043;-61
2022/03/22 09:53:00;;;;;;;1999.90;999.90;;;;;;;18.86;20.76;103071.91;15372835;28;20066;-62
2022/03/22 10:00:34;;;;;;;1999.90;999.90;;;;;;;19.79;20.10;103062.75;15374031;28;20461;-60
2022/03/22 10:08:17;;;;;;;1999.90;999.90;;;;;;;20.03;19.45;103057.31;15356716;28;20046;-61
2022/03/22 10:15:51;;;;;;;1999.90;999.90;;;;;;;21.21;19.73;103054.25;15355819;29;20551;-61
2022/03/22 10:23:25;;;;;;;1999.90;999.90;;;;;;;20.97;17.77;103045.66;15339252;29;20035;-61
2022/03/22 10:30:59;;;;;;;1999.90;999.90;;;;;;;22.40;17.62;103042.88;15371130;28;20408;-60
2022/03/22 10:38:31;;;;;;;1999.90;999.90;;;;;;;23.39;15.66;103032.78;15354239;28;20058;-61
2022/03/22 10:46:12;;;;;;;1999.90;999.90;;;;;;;22.54;17.56;103025.44;15358906;28;20046;-60
2022/03/22 10:54:04;;;;;;;1999.90;999.90;;;;;;;22.72;17.17;103021.94;15346938;28;20106;-61
2022/03/22 11:01:41;;;;;;;1999.90;999.90;;;;;;;24.66;14.81;103014.31;15341773;29;20177;-61
2022/03/22 11:09:15;;;;;;;1999.90;999.90;;;;;;;25.13;14.70;103016.13;15331700;28;20047;-62
2022/03/22 11:16:50;;;;;;;1999.90;999.90;;;;;;;23.24;15.26;103009.63;15371628;28;20062;-63
2022/03/22 11:24:25;;;;;;;1999.90;999.90;;;;;;;24.46;16.08;102997.19;15342059;29;20090;-62
2022/03/22 11:47:47;;;;;;;1999.90;999.90;;;;;;;22.69;15.52;102990.50;15333973;29;20039;-63
2022/03/22 11:55:22;;;;;;;1999.90;999.90;;;;;;;23.60;15.65;102980.06;15330963;28;20044;-60
2022/03/22 12:02:56;;;;;;;1999.90;999.90;;;;;;;22.96;15.25;102964.09;15314538;29;20043;-60
2022/03/22 12:10:28;;;;;;;1999.90;999.90;;;;;;;24.10;14.97;102960.47;15315518;29;20051;-62
2022/03/22 12:18:02;;;;;;;1999.90;999.90;;;;;;;24.86;14.84;102958.03;15328572;28;20047;-67
2022/03/22 12:25:36;;;;;;;1999.90;999.90;;;;;;;24.46;14.21;102947.84;15379957;28;20405;-63
2022/03/22 12:33:14;;;;;;;1999.90;999.90;;;;;;;24.94;14.29;102934.97;15387342;28;20055;-59
2022/03/22 12:40:47;;;;;;;1999.90;999.90;;;;;;;24.92;14.63;102931.66;15363021;29;20504;-63
2022/03/22 12:48:21;;;;;;;1999.90;999.90;;;;;;;26.32;12.92;102923.31;15356632;28;20051;-63
2022/03/22 12:55:53;;;;;;;1999.90;999.90;;;;;;;27.20;12.63;102922.69;15369414;28;20047;-60
2022/03/22 13:03:29;;;;;;;1999.90;999.90;;;;;;;29.35;12.34;102902.41;15353409;28;20046;-59
2022/03/22 13:18:58;;;;;;;1999.90;999.90;;;;;;;30.00;11.69;102899.03;15357280;28;20054;-61
2022/03/22 13:26:32;;;;;;;1999.90;999.90;;;;;;;31.18;10.66;102886.91;15364578;29;20118;-62
2022/03/22 13:34:05;;;;;;;1999.90;999.90;;;;;;;32.74;9.73;102876.47;15352825;29;20051;-62
2022/03/22 13:41:37;;;;;;;1999.90;999.90;;;;;;;30.79;9.80;102878.53;15365598;28;20141;-59
2022/03/22 13:49:11;;;;;;;1999.90;999.90;;;;;;;28.92;11.87;102865.84;15377539;28;20054;-61
2022/03/22 13:56:43;;;;;;;1999.90;999.90;;;;;;;21.56;14.81;102849.34;15362854;28;20048;-59
2022/03/22 14:04:18;;;;;;;1999.90;999.90;;;;;;;21.64;15.91;102842.69;15369724;28;20043;-59
2022/03/22 14:11:51;;;;;;;1999.90;999.90;;;;;;;20.58;16.89;102834.25;15391632;28;20050;-58
2022/03/22 14:19:24;;;;;;;1999.90;999.90;;;;;;;20.79;16.75;102828.50;15364761;28;20436;-59
2022/03/22 14:26:57;;;;;;;1999.90;999.90;;;;;;;20.95;16.31;102830.28;15333168;28;20106;-61
2022/03/22 14:42:26;;;;;;;1999.90;999.90;;;;;;;20.14;17.41;102814.00;15341862;29;20564;-59
2022/03/22 14:50:00;;;;;;;1999.90;999.90;;;;;;;19.81;18.24;102794.13;15351535;28;20055;-61
2022/03/22 15:05:34;;;;;;;1999.90;999.90;;;;;;;20.09;18.83;102786.69;15334414;29;20337;-61
2022/03/22 15:13:09;;;;;;;1999.90;999.90;;;;;;;20.06;19.24;102769.56;15337242;28;20209;-61
2022/03/22 15:20:45;;;;;;;1518.95;767.72;;;;;;;20.03;19.38;102759.75;15373598;28;20051;-60
2022/03/22 15:28:21;;;;;;;1999.90;999.90;;;;;;;20.05;18.30;102748.88;15371912;28;20039;-61
2022/03/22 15:35:55;;;;;;;1999.90;999.90;;;;;;;20.32;18.23;102747.44;15339711;28;20151;-61
2022/03/22 15:43:30;;;;;;;1999.90;999.90;;;;;;;20.27;17.86;102732.66;15331972;29;20055;-61
2022/03/22 15:51:04;;;;;;;1999.90;999.90;;;;;;;19.83;20.64;102735.13;15326382;28;20470;-61
2022/03/22 15:58:37;;;;;;;1032.05;530.05;;;;;;;19.79;19.71;102729.31;15306878;29;20047;-62
2022/03/22 16:06:11;;;;;;;1999.90;999.90;;;;;;;19.85;19.39;102725.09;15328608;28;20063;-59
2022/03/22 16:13:43;;;;;;;48.13;44.95;;;;;;;19.89;19.85;102728.88;15327527;28;20472;-60
2022/03/22 16:21:16;;;;;;;1512.80;761.97;;;;;;;19.75;19.46;102719.84;15343293;28;20063;-60
2022/03/22 16:28:49;;;;;;;44.60;41.75;;;;;;;19.33;19.60;102725.50;15345403;28;20043;-59
2022/03/22 16:44:13;;;;;;;36.45;33.92;;;;;;;18.95;20.01;102708.63;15371390;28;20298;-61
2022/03/22 16:51:47;;;;;;;1999.90;999.90;;;;;;;19.09;19.82;102710.38;15392646;28;20715;-59
2022/03/22 16:59:21;;;;;;;176.57;166.57;;;;;;;18.66;22.79;102703.00;15358799;29;20059;-61
2022/03/22 17:06:55;;;;;;;195.52;183.90;;;;;;;18.29;24.59;102704.59;15360016;28;20571;-60
2022/03/22 17:14:27;;;;;;;108.25;101.72;;;;;;;17.60;25.90;102702.72;15373589;29;20107;-61
2022/03/22 17:22:01;;;;;;;82.35;77.18;;;;;;;17.08;27.25;102710.31;15362776;28;20134;-61
2022/03/22 17:29:34;;;;;;;74.63;69.55;;;;;;;16.51;28.17;102708.31;15373226;28;20453;-60
2022/03/22 17:37:11;;;;;;;64.43;60.05;;;;;;;16.08;28.09;102705.31;15366887;28;20035;-61
2022/03/22 17:44:44;;;;;;;41.92;38.83;;;;;;;15.56;29.58;102699.28;15369709;29;20039;-60
2022/03/22 17:52:17;;;;;;;34.45;31.60;;;;;;;15.22;30.38;102703.47;15332892;29;20055;-61
2022/03/22 17:59:49;;;;;;;;;;;;;;;14.96;30.25;102696.75;15353521;28;20083;-60
2022/03/22 18:07:24;;;;;;;30.90;26.27;;;;;;;14.51;31.47;102698.59;15339341;29;20152;-60
2022/03/22 18:14:56;;;;;;;26.95;24.23;;;;;;;14.13;31.34;102709.94;15333176;29;20079;-62
2022/03/22 18:22:34;;;;;;;34.90;31.52;;;;;;;13.91;31.52;102712.59;15370183;28;20133;-61
2022/03/22 18:30:08;;;;;;;35.55;32.47;;;;;;;13.45;32.28;102713.38;15350336;28;20070;-62
2022/03/22 18:37:43;;;;;;;38.25;35.15;;;;;;;13.34;31.58;102715.50;15359122;28;20667;-61
2022/03/22 18:45:16;;;;;;;40.08;37.03;;;;;;;12.82;33.39;102727.66;15415581;28;20047;-60
2022/03/22 18:52:49;;;;;;;51.30;47.37;;;;;;;12.86;33.15;102717.53;15361687;29;20059;-60
2022/03/22 19:00:22;;;;;;;55.55;51.05;;;;;;;12.61;33.57;102718.69;15359887;29;20302;-62
2022/03/22 19:07:56;;;;;;;49.15;45.33;;;;;;;12.34;33.93;102719.28;15371204;28;20118;-59
2022/03/22 19:15:29;;;;;;;51.25;47.03;;;;;;;11.95;35.40;102719.38;15356346;29;20047;-60
2022/03/22 19:23:04;;;;;;;1999.90;999.90;;;;;;;11.80;36.44;102723.16;15361292;28;20081;-59
2022/03/22 19:32:53;;;;;;;1999.90;999.90;;;;;;;11.43;36.54;102730.13;15370672;28;20053;-61
2022/03/22 19:38:31;;;;;;;;;;;;;;;11.27;37.56;102729.41;15414298;23;20162;-83
2022/03/22 19:46:03;;;;;;;;;;;;;;;11.15;38.04;102714.09;15494997;28;19997;-85
2022/03/22 19:53:46;;;;;;;1999.90;999.90;;;;;;;10.91;37.39;102712.00;15458477;28;19922;-84
2022/03/22 20:01:21;;;;;;;1999.90;999.90;;;;;;;10.61;38.67;102715.75;15432700;28;20094;-83
2022/03/22 20:08:55;;;;;;;1999.90;999.90;;;;;;;10.26;38.96;102713.91;15455666;28;20043;-84
2022/03/22 20:16:27;;;;;;;1999.90;999.90;;;;;;;10.32;39.38;102720.34;15417162;28;20042;-82
2022/03/22 20:24:03;;;;;;;1999.90;999.90;;;;;;;9.88;40.13;102706.97;15449540;28;20043;-84
2022/03/22 20:31:36;;;;;;;1999.90;999.90;;;;;;;9.88;41.12;102711.69;15430939;28;20051;-82
2022/03/22 20:39:10;;;;;;;1999.90;999.90;;;;;;;9.75;40.28;102710.31;15438305;28;20490;-82
2022/03/22 20:46:47;;;;;;;1999.90;999.90;;;;;;;9.61;40.61;102700.84;15392474;28;20061;-83
2022/03/22 20:54:22;;;;;;;1999.90;999.90;;;;;;;9.41;41.72;102696.09;15458319;28;20043;-83
2022/03/22 21:01:54;;;;;;;;;;;;;;;9.32;42.58;102706.94;15443382;28;20051;-84
2022/03/22 21:09:28;;;;;;;1999.90;999.90;;;;;;;8.96;43.29;102703.22;15456337;28;19964;-83
2022/03/22 21:17:01;;;;;;;1999.90;999.90;;;;;;;8.76;43.26;102683.72;15450796;28;20067;-80
2022/03/22 21:24:35;;;;;;;1999.90;999.90;;;;;;;8.76;44.16;102700.41;15455574;28;20098;-83
2022/03/22 21:32:10;;;;;;;1999.90;999.90;;;;;;;8.60;44.51;102697.56;15461871;28;20506;-84
2022/03/22 21:39:45;;;;;;;1999.90;999.90;;;;;;;8.42;44.48;102688.84;15430313;28;20046;-84
2022/03/22 21:47:22;;;;;;;1999.90;999.90;;;;;;;8.14;45.20;102660.31;15415536;28;20051;-84
2022/03/22 21:54:56;;;;;;;1999.90;999.90;;;;;;;7.88;45.71;102648.19;15427962;28;20446;-84
2022/03/22 22:02:28;;;;;;;1999.90;999.90;;;;;;;7.99;45.87;102679.66;15440020;28;20077;-82
2022/03/22 22:10:05;;;;;;;1999.90;999.90;;;;;;;7.82;45.89;102668.72;15457362;28;20047;-86
2022/03/22 22:17:37;;;;;;;1999.90;999.90;;;;;;;7.46;46.31;102642.59;15421243;28;20138;-84
2022/03/22 22:25:15;;;;;;;1999.90;999.90;;;;;;;7.38;46.72;102630.03;15422153;28;20043;-84
2022/03/22 22:41:19;;;;;;;;;;;;;;;7.39;46.45;102661.41;15475274;28;20669;-83
2022/03/22 22:48:59;;;;;;;1999.90;999.90;;;;;;;7.17;47.24;102661.50;15430729;28;20399;-85
2022/03/22 22:56:33;;;;;;;1999.90;999.90;;;;;;;6.95;47.90;102642.97;15448065;28;20055;-85
2022/03/22 23:04:06;;;;;;;1999.90;999.90;;;;;;;6.78;48.36;102646.94;15435734;22;20050;-59
2022/03/22 23:11:48;;;;;;;1999.90;999.90;;;;;;;6.74;48.06;102649.38;15487602;28;20105;-59
2022/03/22 23:19:21;;;;;;;1999.90;999.90;;;;;;;6.62;47.77;102651.47;15483159;22;20097;-62
2022/03/22 23:27:00;;;;;;;1999.90;999.90;;;;;;;6.56;48.45;102647.78;15530112;28;20494;-57
2022/03/22 23:34:32;;;;;;;1999.90;999.90;;;;;;;6.49;48.64;102649.09;15549533;28;20046;-60
2022/03/22 23:42:06;;;;;;;1999.90;999.90;;;;;;;6.30;49.48;102634.72;15548791;28;20065;-59
2022/03/22 23:49:38;;;;;;;;;;;;;;;6.24;50.15;102630.19;15530746;28;20598;-58
2022/03/22 23:57:15;;;;;;;1999.90;999.90;;;;;;;6.15;50.14;102634.50;15546198;28;19936;-56
